Time;durP1;ratioP1;P1;durP2;ratioP2;P2;SDS_P1;SDS_P2;PMS_P1;PMS_P2;Temp;Humidity;BMP_temperature;BMP_pressure;BME280_temperature;BME280_humidity;BME280_pressure;Samples;Min_cycle;Max_cycle;Signal;HPM_P1;HPM_P2
2022/02/23 00:00:22;;;;;;;12.90;1.75;;;5.20;99.90;;;;;;4944486;28;20037;-80
2022/02/23 00:02:49;;;;;;;19.52;1.73;;;5.20;99.90;;;;;;4971779;28;20034;-80
2022/02/23 00:05:16;;;;;;;18.02;2.58;;;5.20;99.90;;;;;;4988483;28;20042;-79
2022/02/23 00:07:42;;;;;;;19.60;2.10;;;5.20;99.90;;;;;;4958837;28;20041;-79
2022/02/23 00:10:10;;;;;;;13.35;1.10;;;5.20;99.90;;;;;;4959685;28;20030;-80
2022/02/23 00:12:37;;;;;;;14.85;1.55;;;5.20;99.90;;;;;;4972679;28;20033;-79
2022/02/23 00:15:04;;;;;;;17.80;2.33;;;5.10;99.90;;;;;;4955953;28;20045;-78
2022/02/23 00:17:31;;;;;;;11.70;1.58;;;5.10;99.90;;;;;;4986042;28;20037;-79
2022/02/23 00:19:57;;;;;;;24.85;2.08;;;5.10;99.90;;;;;;4970746;28;20040;-80
2022/02/23 00:22:24;;;;;;;20.52;2.28;;;5.10;99.90;;;;;;4942456;28;20038;-79
2022/02/23 00:24:51;;;;;;;16.70;1.92;;;5.10;99.90;;;;;;4968894;28;20025;-79
2022/02/23 00:27:17;;;;;;;20.63;2.60;;;5.10;99.90;;;;;;4971643;28;20057;-79
2022/02/23 00:29:43;;;;;;;21.67;1.83;;;5.00;99.90;;;;;;4926866;28;20042;-79
2022/02/23 00:32:12;;;;;;;19.20;1.95;;;5.00;99.90;;;;;;4960289;28;20029;-80
2022/02/23 00:34:39;;;;;;;14.75;1.40;;;4.90;99.90;;;;;;4969534;28;20041;-80
2022/02/23 00:37:05;;;;;;;16.20;1.77;;;4.90;99.90;;;;;;4927245;28;20045;-79
2022/02/23 00:39:31;;;;;;;11.38;1.30;;;4.90;99.90;;;;;;4955584;28;20026;-79
2022/02/23 00:41:58;;;;;;;16.92;2.10;;;4.90;99.90;;;;;;4958440;28;20344;-79
2022/02/23 00:44:24;;;;;;;14.95;2.03;;;4.90;99.90;;;;;;4970229;28;20052;-79
2022/02/23 00:46:51;;;;;;;16.50;1.90;;;4.80;99.90;;;;;;4960375;28;20034;-80
2022/02/23 00:49:17;;;;;;;21.80;2.50;;;4.80;99.90;;;;;;4973538;28;20038;-79
2022/02/23 00:51:44;;;;;;;12.50;1.30;;;4.80;99.90;;;;;;4957599;28;20026;-79
2022/02/23 00:54:10;;;;;;;17.17;2.03;;;4.70;99.90;;;;;;4972784;28;20027;-79
2022/02/23 00:56:37;;;;;;;18.05;1.75;;;4.70;99.90;;;;;;4987445;28;20030;-79
2022/02/23 00:59:03;;;;;;;9.25;1.00;;;4.70;99.90;;;;;;4956394;28;20042;-79
2022/02/23 01:01:29;;;;;;;17.83;1.77;;;4.70;99.90;;;;;;4972914;28;20034;-79
2022/02/23 01:03:56;;;;;;;12.90;1.73;;;4.70;99.90;;;;;;4942812;28;20057;-79
2022/02/23 01:06:23;;;;;;;12.77;1.23;;;4.70;99.90;;;;;;4954452;28;20046;-79
2022/02/23 01:08:49;;;;;;;21.13;1.30;;;4.60;99.90;;;;;;4970069;28;20046;-79
2022/02/23 01:11:19;;;;;;;15.20;1.77;;;4.60;99.90;;;;;;4974182;28;20027;-80
2022/02/23 01:13:47;;;;;;;10.48;1.10;;;4.60;99.90;;;;;;4946931;28;20045;-80
2022/02/23 01:16:13;;;;;;;15.52;2.10;;;4.50;99.90;;;;;;4960232;28;20057;-79
2022/02/23 01:18:40;;;;;;;22.00;2.17;;;4.50;99.90;;;;;;4973563;28;20038;-79
2022/02/23 01:21:07;;;;;;;19.88;2.17;;;4.50;99.90;;;;;;4979333;28;20022;-79
2022/02/23 01:23:33;;;;;;;13.20;1.35;;;4.50;99.90;;;;;;4990892;28;20378;-78
2022/02/23 01:26:00;;;;;;;17.83;1.50;;;4.50;99.90;;;;;;4974522;28;20026;-78
2022/02/23 01:28:26;;;;;;;12.95;1.45;;;4.50;99.90;;;;;;4958028;28;20032;-78
2022/02/23 01:30:53;;;;;;;22.15;2.72;;;4.50;99.90;;;;;;4990452;28;20022;-79
2022/02/23 01:33:19;;;;;;;14.07;1.23;;;4.50;99.90;;;;;;4958947;28;20019;-79
2022/02/23 01:35:46;;;;;;;19.83;2.35;;;4.50;99.90;;;;;;4962401;28;20034;-79
2022/02/23 01:38:15;;;;;;;13.30;2.22;;;4.40;99.90;;;;;;4976932;28;20037;-78
2022/02/23 01:40:42;;;;;;;12.30;1.30;;;4.40;99.90;;;;;;4929253;28;20042;-79
2022/02/23 01:43:09;;;;;;;12.82;1.50;;;4.40;99.90;;;;;;4991571;28;20385;-79
2022/02/23 01:45:35;;;;;;;22.73;2.78;;;4.40;99.90;;;;;;4962352;28;20042;-78
2022/02/23 01:48:04;;;;;;;23.10;2.58;;;4.40;99.90;;;;;;4976853;28;20557;-79
2022/02/23 01:50:32;;;;;;;16.88;1.92;;;4.40;99.90;;;;;;4949103;28;20022;-78
2022/02/23 01:53:05;;;;;;;24.17;2.22;;;4.40;99.90;;;;;;4960716;28;20046;-79
2022/02/23 01:55:32;;;;;;;21.77;2.27;;;4.40;99.90;;;;;;4974504;28;20046;-79
2022/02/23 01:57:59;;;;;;;24.55;2.65;;;4.40;99.90;;;;;;4989195;28;20045;-79
2022/02/23 02:00:25;;;;;;;18.40;1.95;;;4.40;99.90;;;;;;4993079;28;20034;-80
2022/02/23 02:03:12;;;;;;;15.10;1.60;;;4.40;99.90;;;;;;4989870;28;20030;-79
2022/02/23 02:05:40;;;;;;;17.30;2.28;;;4.40;99.90;;;;;;4988889;28;20046;-79
2022/02/23 02:08:07;;;;;;;17.00;1.92;;;4.40;99.90;;;;;;4992732;28;20386;-79
2022/02/23 02:10:35;;;;;;;20.65;1.70;;;4.30;99.90;;;;;;4948434;28;20014;-79
2022/02/23 02:13:03;;;;;;;21.63;1.85;;;4.30;99.90;;;;;;4994497;28;20031;-79
2022/02/23 02:15:29;;;;;;;20.27;1.73;;;4.30;99.90;;;;;;4972803;28;20448;-79
2022/02/23 02:17:56;;;;;;;13.00;1.73;;;4.30;99.90;;;;;;4990554;28;20475;-78
2022/02/23 02:20:24;;;;;;;10.30;1.50;;;4.30;99.90;;;;;;4961209;28;20033;-78
2022/02/23 02:22:51;;;;;;;18.80;1.60;;;4.30;99.90;;;;;;4960439;28;20036;-78
2022/02/23 02:25:19;;;;;;;13.82;1.42;;;4.30;99.90;;;;;;4990944;28;20045;-81
2022/02/23 02:27:50;;;;;;;17.67;1.53;;;4.30;99.90;;;;;;4991063;28;20025;-81
2022/02/23 02:30:17;;;;;;;18.92;2.10;;;4.20;99.90;;;;;;4977106;28;20497;-79
2022/02/23 02:32:43;;;;;;;11.30;1.20;;;4.30;99.90;;;;;;4961972;28;20351;-80
2022/02/23 02:35:12;;;;;;;17.90;1.58;;;4.20;99.90;;;;;;4989379;28;20483;-79
2022/02/23 02:37:38;;;;;;;17.13;1.60;;;4.20;99.90;;;;;;4990977;28;20486;-79
2022/02/23 02:40:05;;;;;;;14.32;1.50;;;4.20;99.90;;;;;;4976469;28;20489;-79
2022/02/23 02:42:32;;;;;;;17.02;1.48;;;4.20;99.90;;;;;;4958207;28;20108;-80
2022/02/23 02:45:01;;;;;;;12.27;1.33;;;4.20;99.90;;;;;;4975566;28;20029;-79
2022/02/23 02:47:27;;;;;;;18.30;2.80;;;4.10;99.90;;;;;;4973323;28;20042;-80
2022/02/23 02:49:54;;;;;;;20.65;1.88;;;4.10;99.90;;;;;;4972981;28;20034;-80
2022/02/23 02:52:20;;;;;;;10.93;1.92;;;4.10;99.90;;;;;;4957991;28;20049;-80
2022/02/23 02:54:47;;;;;;;16.80;1.97;;;4.10;99.90;;;;;;4955213;28;20971;-80
2022/02/23 02:57:13;;;;;;;14.68;1.75;;;4.10;99.90;;;;;;4956505;28;20046;-80
2022/02/23 02:59:40;;;;;;;15.90;1.35;;;4.00;99.90;;;;;;4973030;28;20037;-80
2022/02/23 03:02:06;;;;;;;14.40;1.45;;;4.00;99.90;;;;;;4945919;28;20514;-80
2022/02/23 03:04:33;;;;;;;15.60;1.50;;;4.00;99.90;;;;;;4975464;28;20041;-80
2022/02/23 03:06:59;;;;;;;13.00;1.50;;;4.00;99.90;;;;;;4957251;28;20034;-80
2022/02/23 03:09:25;;;;;;;11.38;1.30;;;4.00;99.90;;;;;;4990368;28;20340;-80
2022/02/23 03:11:52;;;;;;;13.53;1.07;;;3.90;99.90;;;;;;4976636;28;20041;-80
2022/02/23 03:14:18;;;;;;;12.18;1.48;;;3.90;99.90;;;;;;4941947;28;20045;-80
2022/02/23 03:16:47;;;;;;;14.23;1.33;;;3.80;99.90;;;;;;4972987;28;20062;-80
2022/02/23 03:19:14;;;;;;;17.77;2.80;;;3.80;99.90;;;;;;4971130;28;20040;-80
2022/02/23 03:21:41;;;;;;;13.20;2.13;;;3.80;99.90;;;;;;4993486;28;20466;-80
2022/02/23 03:24:07;;;;;;;13.23;2.30;;;3.70;99.90;;;;;;4955916;28;20022;-80
2022/02/23 03:26:34;;;;;;;9.63;1.48;;;3.60;99.90;;;;;;4939753;28;20049;-79
2022/02/23 03:29:00;;;;;;;14.20;1.67;;;3.60;99.90;;;;;;4972319;28;20386;-80
2022/02/23 03:31:27;;;;;;;10.70;1.33;;;3.60;99.90;;;;;;4960484;28;20034;-79
2022/02/23 03:33:53;;;;;;;11.37;1.10;;;3.50;99.90;;;;;;4921838;28;20030;-80
2022/02/23 03:36:19;;;;;;;15.80;1.37;;;3.50;99.90;;;;;;4943969;28;20444;-80
2022/02/23 03:38:46;;;;;;;12.60;1.60;;;3.50;99.90;;;;;;4939356;28;20077;-79
2022/02/23 03:41:14;;;;;;;9.18;1.40;;;3.50;99.90;;;;;;4959810;28;20026;-78
2022/02/23 03:43:43;;;;;;;10.45;1.38;;;3.40;99.90;;;;;;4972724;28;20041;-79
2022/02/23 03:46:09;;;;;;;10.93;1.20;;;3.40;99.90;;;;;;4966803;28;20050;-78
2022/02/23 03:48:36;;;;;;;14.83;1.87;;;3.40;99.90;;;;;;4984058;28;20343;-78
2022/02/23 03:51:03;;;;;;;18.87;1.77;;;3.40;99.90;;;;;;4973630;28;20034;-78
2022/02/23 03:53:29;;;;;;;15.23;1.70;;;3.30;99.90;;;;;;4956219;28;20053;-78
2022/02/23 03:55:56;;;;;;;9.33;1.30;;;3.30;99.90;;;;;;4957685;28;20034;-78
2022/02/23 03:58:22;;;;;;;14.60;1.37;;;3.30;99.90;;;;;;4971736;28;20037;-79
2022/02/23 04:00:49;;;;;;;13.40;1.50;;;3.30;99.90;;;;;;4941523;28;20030;-79
2022/02/23 04:03:16;;;;;;;8.77;1.20;;;3.30;99.90;;;;;;4992060;28;20019;-78
2022/02/23 04:05:43;;;;;;;13.57;1.33;;;3.30;99.90;;;;;;4988317;28;20006;-78
2022/02/23 04:08:10;;;;;;;13.40;2.30;;;3.20;99.90;;;;;;4955049;28;20038;-78
2022/02/23 04:10:37;;;;;;;17.40;2.07;;;3.20;99.90;;;;;;4958903;28;20375;-78
2022/02/23 04:13:04;;;;;;;14.47;2.40;;;3.20;99.90;;;;;;4973241;28;20838;-78
2022/02/23 04:15:30;;;;;;;18.17;2.00;;;3.20;99.90;;;;;;4991212;28;20049;-78
2022/02/23 04:17:57;;;;;;;16.90;1.73;;;3.20;99.90;;;;;;4970650;28;20025;-78
2022/02/23 04:20:23;;;;;;;16.30;2.17;;;3.30;99.90;;;;;;4972082;28;20034;-77
2022/02/23 04:22:50;;;;;;;11.17;2.20;;;3.20;99.90;;;;;;4985456;28;20697;-77
2022/02/23 04:25:17;;;;;;;13.38;2.63;;;3.20;99.90;;;;;;4955358;28;20034;-77
2022/02/23 04:27:43;;;;;;;20.70;2.73;;;3.20;99.90;;;;;;4970547;28;20034;-78
2022/02/23 04:30:11;;;;;;;13.83;2.07;;;3.20;99.90;;;;;;4960563;28;20030;-78
2022/02/23 04:32:37;;;;;;;10.27;1.52;;;3.20;99.90;;;;;;4970381;28;20026;-78
2022/02/23 04:35:06;;;;;;;13.98;2.10;;;3.20;99.90;;;;;;4974336;28;20048;-78
2022/02/23 04:37:33;;;;;;;9.87;1.47;;;3.20;99.90;;;;;;4986121;28;20030;-79
2022/02/23 04:40:03;;;;;;;13.03;1.37;;;3.20;99.90;;;;;;4987730;28;20127;-78
2022/02/23 04:42:32;;;;;;;9.90;2.05;;;3.10;99.90;;;;;;4974503;28;20022;-78
2022/02/23 04:45:04;;;;;;;10.90;1.50;;;3.20;99.90;;;;;;4970439;28;20146;-78
2022/02/23 04:47:38;;;;;;;7.75;1.45;;;3.10;99.90;;;;;;4967681;28;20038;-78
2022/02/23 04:50:06;;;;;;;10.33;1.40;;;3.10;99.90;;;;;;4971108;28;20034;-79
2022/02/23 04:52:34;;;;;;;9.73;1.17;;;3.10;99.90;;;;;;4983932;28;20338;-78
2022/02/23 04:55:01;;;;;;;11.75;1.63;;;3.00;99.90;;;;;;4966602;28;20039;-78
2022/02/23 04:57:28;;;;;;;11.47;1.30;;;3.00;99.90;;;;;;4982250;28;20043;-78
2022/02/23 04:59:56;;;;;;;15.77;1.87;;;3.00;99.90;;;;;;4944364;28;20046;-81
2022/02/23 05:02:23;;;;;;;8.50;1.03;;;3.00;99.90;;;;;;4969606;28;20039;-80
2022/02/23 05:04:54;;;;;;;13.90;1.67;;;3.00;99.90;;;;;;4979777;28;20037;-80
2022/02/23 05:07:24;;;;;;;12.68;1.90;;;2.90;99.90;;;;;;4966852;28;20053;-81
2022/02/23 05:09:55;;;;;;;10.17;1.63;;;2.90;99.90;;;;;;4990064;28;20469;-81
2022/02/23 05:12:27;;;;;;;14.17;2.00;;;2.90;99.90;;;;;;4972801;28;20402;-81
2022/02/23 05:14:54;;;;;;;10.73;1.47;;;2.90;99.90;;;;;;4984144;28;20045;-80
2022/02/23 05:17:21;;;;;;;12.63;1.60;;;2.90;99.90;;;;;;4967051;28;20054;-80
2022/02/23 05:19:48;;;;;;;16.87;1.60;;;2.90;99.90;;;;;;4971995;28;20038;-80
2022/02/23 05:22:16;;;;;;;14.17;1.57;;;2.80;99.90;;;;;;4988889;28;20049;-80
2022/02/23 05:24:43;;;;;;;9.43;1.53;;;2.80;99.90;;;;;;4950473;28;20058;-81
2022/02/23 05:27:09;;;;;;;5.47;0.90;;;2.80;99.90;;;;;;4959498;28;20047;-80
2022/02/23 05:29:35;;;;;;;14.73;2.13;;;2.80;99.90;;;;;;4954605;28;20034;-80
2022/02/23 05:32:03;;;;;;;15.23;1.57;;;2.80;99.90;;;;;;4989040;28;20026;-81
2022/02/23 05:34:30;;;;;;;11.00;1.67;;;2.80;99.90;;;;;;4953208;28;21312;-81
2022/02/23 05:36:56;;;;;;;11.20;1.30;;;2.70;99.90;;;;;;4971016;28;20026;-81
2022/02/23 05:39:23;;;;;;;17.67;2.00;;;2.70;99.90;;;;;;4957557;28;20374;-81
2022/02/23 05:41:50;;;;;;;7.80;1.60;;;2.70;99.90;;;;;;4977307;28;20033;-81
2022/02/23 05:44:16;;;;;;;7.20;1.33;;;2.70;99.90;;;;;;4954525;28;20039;-78
2022/02/23 05:46:42;;;;;;;13.70;1.67;;;2.70;99.90;;;;;;4954823;28;20038;-78
2022/02/23 05:49:09;;;;;;;9.37;1.50;;;2.70;99.90;;;;;;4952990;28;20035;-79
2022/02/23 05:51:39;;;;;;;14.23;1.60;;;2.60;99.90;;;;;;4972979;28;20046;-79
2022/02/23 05:54:06;;;;;;;13.90;1.87;;;2.60;99.90;;;;;;4970603;28;20119;-81
2022/02/23 05:56:33;;;;;;;12.43;1.50;;;2.70;99.90;;;;;;4954213;28;20035;-81
2022/02/23 05:59:00;;;;;;;17.87;2.40;;;2.60;99.90;;;;;;4958269;28;20053;-80
2022/02/23 06:01:27;;;;;;;9.87;2.30;;;2.60;99.90;;;;;;4974964;28;20026;-81
2022/02/23 06:03:53;;;;;;;14.93;2.40;;;2.60;99.90;;;;;;4945270;28;20038;-81
2022/02/23 06:06:19;;;;;;;13.87;2.53;;;2.60;99.90;;;;;;4960499;28;20042;-80
2022/02/23 06:08:46;;;;;;;10.40;2.27;;;2.60;99.90;;;;;;4972742;28;20496;-81
2022/02/23 06:11:15;;;;;;;17.90;2.60;;;2.70;99.90;;;;;;4991824;28;20042;-80
2022/02/23 06:13:42;;;;;;;12.20;2.63;;;2.70;99.90;;;;;;4970893;28;20038;-79
2022/02/23 06:16:08;;;;;;;19.83;3.20;;;2.70;99.90;;;;;;4957496;28;20062;-78
2022/02/23 06:18:35;;;;;;;10.07;3.07;;;2.70;99.90;;;;;;4974360;28;20041;-78
2022/02/23 06:21:02;;;;;;;12.80;2.43;;;2.70;99.90;;;;;;4974338;28;20025;-78
2022/02/23 06:23:28;;;;;;;15.67;3.87;;;2.70;99.90;;;;;;4941852;28;20030;-78
2022/02/23 06:25:54;;;;;;;13.10;4.00;;;2.60;99.90;;;;;;4971283;28;20049;-79
2022/02/23 06:28:21;;;;;;;11.83;4.20;;;2.60;99.90;;;;;;4972498;28;20490;-78
2022/02/23 06:30:47;;;;;;;18.67;3.90;;;2.60;99.90;;;;;;4946421;28;20034;-81
2022/02/23 06:33:22;;;;;;;17.80;3.80;;;2.60;99.90;;;;;;4960215;28;20034;-78
2022/02/23 06:35:52;;;;;;;14.20;4.63;;;2.60;99.90;;;;;;4976892;28;20033;-77
2022/02/23 06:38:23;;;;;;;14.00;3.67;;;2.60;99.90;;;;;;4957251;28;20060;-78
2022/02/23 06:40:51;;;;;;;14.70;3.87;;;2.60;99.90;;;;;;4976281;28;20025;-78
2022/02/23 06:43:21;;;;;;;22.97;5.67;;;2.60;99.90;;;;;;4944221;28;20042;-77
2022/02/23 06:45:50;;;;;;;13.00;2.60;;;2.60;99.90;;;;;;4987999;28;20034;-77
2022/02/23 06:48:19;;;;;;;14.00;3.27;;;2.60;99.90;;;;;;4973116;28;20034;-77
2022/02/23 06:50:46;;;;;;;12.93;3.10;;;2.60;99.90;;;;;;4957082;28;20023;-77
2022/02/23 06:53:13;;;;;;;13.53;3.60;;;2.60;99.90;;;;;;4957365;28;20041;-78
2022/02/23 06:55:42;;;;;;;13.90;3.37;;;2.70;99.90;;;;;;4959776;28;20826;-77
2022/02/23 06:58:09;;;;;;;16.57;4.10;;;2.70;99.90;;;;;;4977668;28;20039;-78
2022/02/23 07:00:37;;;;;;;16.67;3.93;;;2.70;99.90;;;;;;4994109;28;20037;-78
2022/02/23 07:03:06;;;;;;;18.50;3.97;;;2.70;99.90;;;;;;4987478;28;20529;-78
2022/02/23 07:05:34;;;;;;;14.60;3.67;;;2.80;99.90;;;;;;4989429;28;20501;-78
2022/02/23 07:08:02;;;;;;;17.30;3.77;;;2.80;99.90;;;;;;4987915;28;20046;-79
2022/02/23 07:10:30;;;;;;;13.53;3.53;;;2.90;99.90;;;;;;4969977;28;20026;-79
2022/02/23 07:12:58;;;;;;;19.80;3.90;;;2.90;99.90;;;;;;4984542;28;20029;-80
2022/02/23 07:15:27;;;;;;;19.57;3.67;;;3.00;99.90;;;;;;4957480;28;20038;-80
2022/02/23 07:17:56;;;;;;;16.60;3.97;;;3.00;99.90;;;;;;4973227;28;20500;-82
2022/02/23 07:20:23;;;;;;;17.50;2.87;;;3.10;99.90;;;;;;4959248;28;20046;-79
2022/02/23 07:22:51;;;;;;;14.60;3.27;;;3.20;99.90;;;;;;4969475;28;20045;-79
2022/02/23 07:25:18;;;;;;;14.60;3.17;;;3.30;99.90;;;;;;4974170;28;20041;-78
2022/02/23 07:27:45;;;;;;;13.07;3.70;;;3.30;99.90;;;;;;4973174;28;20038;-78
2022/02/23 07:30:16;;;;;;;13.70;2.88;;;3.40;99.90;;;;;;4957630;28;20035;-78
2022/02/23 07:32:43;;;;;;;13.10;2.80;;;3.50;99.90;;;;;;4954698;28;20049;-78
2022/02/23 07:35:11;;;;;;;14.47;2.60;;;3.60;99.90;;;;;;4968960;28;20038;-78
2022/02/23 07:37:39;;;;;;;11.17;3.03;;;3.60;99.90;;;;;;4968982;28;20030;-78
2022/02/23 07:40:09;;;;;;;17.57;3.30;;;3.80;99.90;;;;;;4975549;28;20441;-78
2022/02/23 07:42:36;;;;;;;19.98;3.22;;;3.80;99.90;;;;;;4973861;28;20027;-78
2022/02/23 07:45:03;;;;;;;18.33;3.47;;;3.90;99.90;;;;;;4957636;28;20041;-78
2022/02/23 07:47:29;;;;;;;13.38;2.38;;;4.00;99.90;;;;;;4986391;28;20053;-78
2022/02/23 07:49:56;;;;;;;10.02;2.53;;;4.10;99.90;;;;;;4945381;28;20038;-78
2022/02/23 07:52:23;;;;;;;16.77;2.88;;;4.20;99.90;;;;;;4944724;28;20054;-78
2022/02/23 07:54:49;;;;;;;15.60;2.37;;;4.30;99.90;;;;;;4972766;28;20378;-78
2022/02/23 07:57:16;;;;;;;13.00;2.20;;;4.40;99.90;;;;;;4954744;28;20057;-78
2022/02/23 07:59:42;;;;;;;14.88;2.65;;;4.50;99.90;;;;;;4974469;28;20033;-78
2022/02/23 08:02:09;;;;;;;12.50;2.27;;;4.50;99.90;;;;;;4941919;28;20042;-79
2022/02/23 08:04:35;;;;;;;14.80;3.40;;;4.60;99.90;;;;;;4940397;28;20657;-78
2022/02/23 08:07:02;;;;;;;17.27;2.72;;;4.70;99.90;;;;;;4957426;28;20477;-78
2022/02/23 08:09:29;;;;;;;10.95;2.95;;;4.80;99.90;;;;;;4954564;28;20023;-78
2022/02/23 08:11:56;;;;;;;11.07;2.45;;;4.80;99.90;;;;;;4941052;28;20033;-78
2022/02/23 08:14:24;;;;;;;15.27;3.00;;;4.90;99.90;;;;;;4939458;28;20041;-78
2022/02/23 08:19:36;;;;;;;17.60;2.35;;;5.00;99.90;;;;;;4958201;28;20026;-78
2022/02/23 08:22:11;;;;;;;11.90;2.07;;;5.10;99.90;;;;;;4941490;28;20372;-78
2022/02/23 08:24:41;;;;;;;11.60;2.55;;;5.20;99.90;;;;;;4972854;28;20145;-79
2022/02/23 08:27:09;;;;;;;13.95;2.35;;;5.30;99.90;;;;;;4941723;28;20026;-79
2022/02/23 08:29:37;;;;;;;13.52;2.60;;;5.40;99.90;;;;;;4984762;28;20050;-78
2022/02/23 08:32:05;;;;;;;21.30;4.07;;;5.40;99.90;;;;;;4955941;28;20385;-78
2022/02/23 08:34:31;;;;;;;18.15;4.35;;;5.50;99.90;;;;;;4970285;28;21358;-79
2022/02/23 08:36:58;;;;;;;16.05;3.83;;;5.60;99.90;;;;;;4955129;28;20034;-78
2022/02/23 08:39:24;;;;;;;19.58;3.88;;;5.60;99.90;;;;;;4933618;28;20035;-78
2022/02/23 08:41:51;;;;;;;12.45;2.65;;;5.70;99.90;;;;;;4972636;28;20041;-78
2022/02/23 08:44:18;;;;;;;23.07;2.87;;;5.80;99.90;;;;;;4954208;28;20576;-79
2022/02/23 08:46:44;;;;;;;15.73;2.97;;;5.80;99.90;;;;;;4958597;28;20053;-79
2022/02/23 08:49:13;;;;;;;11.32;2.33;;;5.90;99.90;;;;;;4968187;28;20026;-79
2022/02/23 08:51:44;;;;;;;15.38;2.92;;;6.00;99.90;;;;;;4956526;28;20041;-78
2022/02/23 08:54:12;;;;;;;14.10;2.30;;;6.10;99.90;;;;;;4985206;28;20024;-78
2022/02/23 08:56:38;;;;;;;13.43;2.97;;;6.10;99.90;;;;;;4988546;28;20018;-79
2022/02/23 08:59:05;;;;;;;15.48;2.55;;;6.20;99.90;;;;;;4974035;28;20053;-78
2022/02/23 09:01:33;;;;;;;17.50;4.00;;;6.30;99.90;;;;;;4942388;28;20037;-79
2022/02/23 09:04:03;;;;;;;16.63;2.92;;;6.40;99.90;;;;;;4986145;28;20674;-78
2022/02/23 09:06:32;;;;;;;11.43;3.20;;;6.40;99.90;;;;;;4973492;28;20045;-78
2022/02/23 09:08:59;;;;;;;19.27;3.20;;;6.60;99.90;;;;;;4954021;28;20045;-79
2022/02/23 09:11:26;;;;;;;19.38;3.42;;;6.60;99.90;;;;;;4955581;28;20033;-78
2022/02/23 09:13:53;;;;;;;14.07;3.28;;;6.80;99.90;;;;;;4939853;28;20034;-78
2022/02/23 09:16:19;;;;;;;12.32;2.63;;;6.80;99.90;;;;;;4956726;28;20685;-78
2022/02/23 09:18:45;;;;;;;19.52;2.75;;;6.90;99.90;;;;;;4971459;28;20034;-78
2022/02/23 09:21:12;;;;;;;18.15;3.30;;;7.00;99.90;;;;;;4957225;28;20037;-79
2022/02/23 09:23:39;;;;;;;16.85;3.63;;;7.00;99.90;;;;;;4938945;28;20022;-79
2022/02/23 09:26:07;;;;;;;14.80;3.55;;;7.10;99.90;;;;;;4985841;28;20030;-78
2022/02/23 09:28:35;;;;;;;19.58;4.50;;;7.10;99.90;;;;;;4970264;28;20030;-78
2022/02/23 09:31:01;;;;;;;12.10;4.30;;;7.20;99.90;;;;;;4971049;28;20026;-78
2022/02/23 09:33:28;;;;;;;20.77;3.60;;;7.30;99.90;;;;;;4970565;28;20034;-78
2022/02/23 09:36:00;;;;;;;11.43;3.22;;;7.40;99.90;;;;;;4942790;28;20030;-78
2022/02/23 09:38:26;;;;;;;14.88;4.40;;;7.50;99.90;;;;;;4946412;28;20038;-78
2022/02/23 09:40:53;;;;;;;20.55;4.47;;;7.60;99.90;;;;;;4975799;28;20033;-78
2022/02/23 09:43:20;;;;;;;17.05;4.63;;;7.60;99.90;;;;;;4991539;28;20482;-79
2022/02/23 09:45:54;;;;;;;17.77;3.75;;;7.70;99.90;;;;;;4971456;28;20033;-79
2022/02/23 09:48:27;;;;;;;16.35;3.85;;;7.80;99.90;;;;;;4960683;28;20046;-79
2022/02/23 09:50:54;;;;;;;16.40;3.45;;;7.90;99.90;;;;;;4946948;28;20038;-78
2022/02/23 09:53:22;;;;;;;15.90;4.68;;;8.00;99.90;;;;;;4957518;28;20033;-79
2022/02/23 09:55:52;;;;;;;16.05;4.07;;;8.10;99.90;;;;;;4990149;28;20022;-78
2022/02/23 09:58:19;;;;;;;18.67;4.65;;;8.20;99.90;;;;;;4973525;28;20351;-78
2022/02/23 10:00:46;;;;;;;19.35;4.18;;;8.30;99.90;;;;;;4993331;28;20034;-79
2022/02/23 10:03:12;;;;;;;22.30;4.95;;;8.30;99.90;;;;;;4969870;28;20053;-79
2022/02/23 10:05:41;;;;;;;14.82;3.78;;;8.40;99.90;;;;;;4973173;28;20378;-79
2022/02/23 10:08:09;;;;;;;16.40;3.92;;;8.50;99.90;;;;;;4941823;28;20049;-82
2022/02/23 10:10:37;;;;;;;14.60;4.03;;;8.50;99.90;;;;;;4996375;28;20030;-83
2022/02/23 10:13:06;;;;;;;18.20;5.43;;;8.60;99.90;;;;;;4960828;28;20025;-82
2022/02/23 10:15:58;;;;;;;14.15;4.95;;;8.70;99.90;;;;;;4991052;28;20034;-83
2022/02/23 10:18:28;;;;;;;15.40;5.90;;;8.80;99.90;;;;;;4965878;28;20046;-81
2022/02/23 10:20:54;;;;;;;21.08;5.50;;;8.90;99.90;;;;;;4973175;28;20166;-81
2022/02/23 10:23:23;;;;;;;15.82;5.70;;;9.00;99.90;;;;;;4974325;28;20052;-81
2022/02/23 10:25:59;;;;;;;15.10;5.10;;;9.20;99.90;;;;;;4958625;28;20433;-82
2022/02/23 10:28:28;;;;;;;17.23;5.38;;;9.40;99.90;;;;;;4970596;28;20088;-82
2022/02/23 10:31:00;;;;;;;17.80;5.28;;;9.60;99.90;;;;;;4948124;28;20467;-78
2022/02/23 10:33:31;;;;;;;19.05;4.40;;;9.90;99.90;;;;;;4986655;28;20030;-78
2022/02/23 10:36:11;;;;;;;16.20;3.90;;;10.20;99.90;;;;;;4958678;28;20023;-78
2022/02/23 10:38:41;;;;;;;18.88;4.38;;;10.50;99.90;;;;;;4985215;28;20034;-78
2022/02/23 10:41:25;;;;;;;19.08;4.30;;;10.80;99.90;;;;;;4958677;28;20022;-78
2022/02/23 10:43:56;;;;;;;17.00;5.22;;;11.10;99.90;;;;;;4985548;28;20025;-78
2022/02/23 10:46:23;;;;;;;19.15;4.57;;;11.30;99.90;;;;;;4971487;28;20042;-78
2022/02/23 10:49:15;;;;;;;13.90;4.35;;;11.40;99.90;;;;;;4984562;28;20486;-78
2022/02/23 10:51:45;;;;;;;14.85;3.58;;;11.70;99.90;;;;;;4959995;28;20046;-80
2022/02/23 10:54:16;;;;;;;16.02;3.50;;;11.90;99.90;;;;;;4975140;28;20030;-81
2022/02/23 10:56:54;;;;;;;11.63;3.40;;;12.00;99.90;;;;;;4973865;28;20490;-79
2022/02/23 10:59:23;;;;;;;17.60;4.03;;;12.30;99.90;;;;;;4945778;28;20049;-79
2022/02/23 11:01:54;;;;;;;9.68;3.38;;;12.50;99.90;;;;;;4975801;28;20053;-79
2022/02/23 11:04:21;;;;;;;10.45;3.33;;;12.80;99.90;;;;;;4972326;28;20129;-79
2022/02/23 11:06:51;;;;;;;10.50;3.13;;;13.10;99.90;;;;;;4958658;28;20378;-79
2022/02/23 11:09:18;;;;;;;13.48;2.75;;;13.40;99.90;;;;;;4971711;28;20086;-78
2022/02/23 11:11:47;;;;;;;12.05;2.38;;;13.60;99.90;;;;;;4959351;28;20030;-79
2022/02/23 11:14:15;;;;;;;10.88;2.72;;;13.70;99.90;;;;;;4986985;28;20034;-79
2022/02/23 11:16:43;;;;;;;10.40;1.90;;;13.90;99.90;;;;;;4988358;28;20812;-79
2022/02/23 11:19:15;;;;;;;11.57;2.30;;;14.10;99.90;;;;;;4971289;28;20022;-79
2022/02/23 11:21:43;;;;;;;8.03;1.47;;;14.30;99.90;;;;;;4944194;28;20026;-79
2022/02/23 11:24:10;;;;;;;8.75;1.67;;;14.50;99.90;;;;;;4954226;28;20042;-80
2022/02/23 11:26:39;;;;;;;12.35;2.03;;;14.60;99.90;;;;;;4971894;28;20034;-79
2022/02/23 11:29:30;;;;;;;8.23;1.98;;;14.60;99.90;;;;;;4988306;28;20044;-81
2022/02/23 11:32:01;;;;;;;10.18;1.35;;;14.70;99.90;;;;;;4974852;28;20370;-81
2022/02/23 11:34:27;;;;;;;7.63;2.05;;;14.70;99.90;;;;;;4973794;28;20027;-79
2022/02/23 11:37:03;;;;;;;13.07;4.10;;;14.60;99.90;;;;;;4972704;28;20030;-81
2022/02/23 11:39:37;;;;;;;10.13;3.42;;;14.50;99.90;;;;;;4972896;28;20343;-80
2022/02/23 11:42:10;;;;;;;10.65;2.00;;;14.60;99.90;;;;;;4973458;28;20038;-78
2022/02/23 11:44:45;;;;;;;7.60;1.88;;;14.50;99.90;;;;;;4975695;28;20046;-81
2022/02/23 11:47:18;;;;;;;10.38;2.35;;;14.30;99.90;;;;;;4939793;28;20060;-80
2022/02/23 11:49:55;;;;;;;;;;;13.90;99.90;;;;;;4989195;28;20478;-80
2022/02/23 11:52:31;;;;;;;10.32;1.45;;;13.50;99.90;;;;;;4959541;28;19913;-79
2022/02/23 11:55:17;;;;;;;10.60;1.67;;;13.10;99.90;;;;;;4967980;28;20390;-82
2022/02/23 11:57:52;;;;;;;8.63;3.10;;;12.80;99.90;;;;;;4951226;28;20427;-82
2022/02/23 12:00:31;;;;;;;8.70;2.25;;;12.50;99.90;;;;;;4974079;28;20034;-84
2022/02/23 12:03:20;;;;;;;10.90;1.85;;;12.30;99.90;;;;;;4954178;28;20025;-81
2022/02/23 12:05:53;;;;;;;10.73;1.85;;;12.10;99.90;;;;;;4989782;28;20030;-82
2022/02/23 12:08:37;;;;;;;8.93;1.52;;;12.00;99.90;;;;;;4937574;28;20049;-82
2022/02/23 12:11:13;;;;;;;11.30;1.42;;;12.00;99.90;;;;;;4973711;28;20437;-82
2022/02/23 12:13:44;;;;;;;8.88;1.10;;;12.30;99.90;;;;;;4959304;28;20026;-82
2022/02/23 12:16:45;;;;;;;7.60;1.45;;;12.80;99.90;;;;;;4973164;28;20046;-83
2022/02/23 12:19:12;;;;;;;12.40;1.50;;;13.70;99.90;;;;;;4985876;28;20038;-82
2022/02/23 12:21:47;;;;;;;8.70;1.00;;;14.50;99.90;;;;;;4989950;28;20034;-83
2022/02/23 12:24:20;;;;;;;6.88;1.15;;;15.10;99.90;;;;;;4970221;28;20030;-82
2022/02/23 12:26:51;;;;;;;9.05;2.05;;;15.60;99.90;;;;;;4940132;28;20038;-82
2022/02/23 12:29:17;;;;;;;6.72;1.40;;;16.10;99.90;;;;;;4940767;28;20042;-82
2022/02/23 12:31:46;;;;;;;11.20;1.55;;;16.50;99.90;;;;;;4958108;28;20498;-81
2022/02/23 12:34:18;;;;;;;5.90;1.33;;;16.80;99.90;;;;;;4988144;28;20034;-81
2022/02/23 12:36:52;;;;;;;6.95;1.42;;;17.10;99.90;;;;;;4972652;28;20029;-78
2022/02/23 12:39:19;;;;;;;9.93;1.30;;;17.20;98.50;;;;;;4970133;28;20030;-79
2022/02/23 12:41:48;;;;;;;8.45;1.60;;;17.30;98.10;;;;;;4992032;28;20050;-78
2022/02/23 12:44:18;;;;;;;6.85;1.30;;;17.50;97.70;;;;;;4954691;28;20037;-78
2022/02/23 12:46:49;;;;;;;8.93;1.70;;;17.70;96.50;;;;;;4985998;28;20023;-82
2022/02/23 12:49:17;;;;;;;7.30;1.17;;;18.00;94.10;;;;;;4952464;28;20038;-82
2022/02/23 12:51:44;;;;;;;8.73;1.75;;;18.20;93.60;;;;;;4972187;28;20050;-78
2022/02/23 12:54:22;;;;;;;10.05;2.25;;;18.40;91.40;;;;;;4954633;28;20041;-77